createdAt,value
2023-03-11T00:00:36.574Z,66.20
2023-03-11T00:03:04.511Z,65.50
2023-03-11T00:05:37.431Z,65.40
2023-03-11T00:08:05.705Z,65.60
2023-03-11T00:10:37.806Z,65.50
2023-03-11T00:13:06.010Z,65.60
2023-03-11T00:15:33.680Z,65.30
2023-03-11T00:18:00.899Z,65.40
2023-03-11T00:20:33.324Z,65.50
2023-03-11T00:23:00.973Z,65.50
2023-03-11T00:25:30.632Z,65.30
2023-03-11T00:27:58.233Z,65.20
2023-03-11T00:30:25.507Z,65.30
2023-03-11T00:32:54.815Z,65.20
2023-03-11T00:35:25.214Z,65.10
2023-03-11T00:37:58.908Z,65.20
2023-03-11T00:40:28.958Z,65.40
2023-03-11T00:42:55.967Z,65.40
2023-03-11T00:45:23.220Z,65.50
2023-03-11T00:47:51.553Z,65.50
2023-03-11T00:50:25.703Z,65.50
2023-03-11T00:52:54.015Z,65.40
2023-03-11T00:55:24.476Z,65.20
2023-03-11T00:58:02.775Z,65.30
2023-03-11T01:00:36.786Z,65.40
2023-03-11T01:03:04.298Z,65.30
2023-03-11T01:05:33.692Z,65.30
2023-03-11T01:08:04.499Z,65.20
2023-03-11T01:10:36.119Z,65.20
2023-03-11T01:13:04.911Z,65.20
2023-03-11T01:15:34.801Z,65.20
2023-03-11T01:18:01.927Z,65.30
2023-03-11T01:20:29.209Z,65.40
2023-03-11T01:22:56.505Z,65.60
2023-03-11T01:25:24.552Z,65.70
2023-03-11T01:27:51.478Z,65.70
2023-03-11T01:30:22.565Z,65.70
2023-03-11T01:32:51.858Z,65.80
2023-03-11T01:35:20.677Z,65.90
2023-03-11T01:37:47.826Z,65.90
2023-03-11T01:40:23.144Z,66.10
2023-03-11T01:42:50.044Z,66.30
2023-03-11T01:46:02.540Z,66.10
2023-03-11T01:48:30.640Z,66.00
2023-03-11T01:50:57.782Z,66.20
2023-03-11T01:53:25.321Z,66.40
2023-03-11T01:55:52.365Z,66.40
2023-03-11T01:58:28.384Z,66.40
2023-03-11T02:00:56.576Z,66.50
2023-03-11T02:03:33.765Z,66.50
2023-03-11T02:06:03.430Z,66.70
2023-03-11T02:08:34.166Z,66.80
2023-03-11T02:11:05.658Z,66.80
2023-03-11T02:13:35.359Z,66.70
2023-03-11T02:16:03.575Z,66.80
2023-03-11T02:18:30.626Z,66.90
2023-03-11T02:21:27.274Z,66.90
2023-03-11T02:24:19.986Z,66.80
2023-03-11T02:26:56.371Z,66.80
2023-03-11T02:29:26.479Z,66.90
2023-03-11T02:31:55.503Z,67.00
2023-03-11T02:34:38.023Z,67.10
2023-03-11T02:37:09.079Z,67.20
2023-03-11T02:39:42.668Z,67.30
2023-03-11T02:42:15.966Z,67.30
2023-03-11T02:44:46.580Z,67.40
2023-03-11T02:47:13.973Z,67.40
2023-03-11T02:49:40.883Z,67.40
2023-03-11T02:52:07.801Z,67.40
2023-03-11T02:54:34.688Z,67.50
2023-03-11T02:57:01.456Z,67.50
2023-03-11T02:59:28.332Z,67.60
2023-03-11T03:01:56.190Z,67.70
2023-03-11T03:04:23.265Z,67.70
2023-03-11T03:06:50.116Z,67.90
2023-03-11T03:09:17.827Z,67.80
2023-03-11T03:11:44.817Z,67.90
2023-03-11T03:14:11.714Z,67.90
2023-03-11T03:16:38.781Z,67.90
2023-03-11T03:19:05.941Z,68.10
2023-03-11T03:21:32.797Z,68.10
2023-03-11T03:23:59.692Z,68.20
2023-03-11T03:26:26.626Z,68.30
2023-03-11T03:28:53.661Z,68.50
2023-03-11T03:31:20.734Z,68.50
2023-03-11T03:33:47.668Z,68.60
2023-03-11T03:36:15.567Z,68.60
2023-03-11T03:38:45.960Z,68.60
2023-03-11T03:41:16.033Z,68.70
2023-03-11T03:43:43.191Z,68.70
2023-03-11T03:46:10.806Z,68.70
2023-03-11T03:48:42.498Z,68.80
2023-03-11T03:51:13.398Z,68.90
2023-03-11T03:53:48.240Z,69.00
2023-03-11T03:56:17.422Z,69.10
2023-03-11T03:58:44.696Z,69.10
2023-03-11T04:01:12.445Z,69.10
2023-03-11T04:03:40.960Z,69.10
2023-03-11T04:06:25.295Z,69.10
2023-03-11T04:08:59.814Z,69.10
2023-03-11T04:11:30.078Z,69.10
2023-03-11T04:13:57.084Z,69.20
2023-03-11T04:16:24.754Z,69.20
2023-03-11T04:18:57.577Z,69.20
2023-03-11T04:21:24.701Z,69.30
2023-03-11T04:23:51.765Z,69.30
2023-03-11T04:26:22.043Z,69.40
2023-03-11T04:28:48.940Z,69.30
2023-03-11T04:31:17.064Z,69.30
2023-03-11T04:33:44.104Z,69.30
2023-03-11T04:36:13.082Z,69.30
2023-03-11T04:38:40.144Z,69.30
2023-03-11T04:41:09.374Z,69.30
2023-03-11T04:43:39.526Z,69.30
2023-03-11T04:46:06.460Z,69.40
2023-03-11T04:48:33.957Z,69.40
2023-03-11T04:51:00.833Z,69.40
2023-03-11T04:53:29.197Z,69.40
2023-03-11T04:55:56.520Z,69.50
2023-03-11T04:58:23.350Z,69.40
2023-03-11T05:00:50.420Z,69.40
2023-03-11T05:03:17.491Z,69.50
2023-03-11T05:05:45.391Z,69.50
2023-03-11T05:08:12.600Z,69.50
2023-03-11T05:10:41.852Z,69.50
2023-03-11T05:13:09.895Z,69.50
2023-03-11T05:15:39.297Z,69.50
2023-03-11T05:18:07.114Z,69.50
2023-03-11T05:20:36.121Z,69.50
2023-03-11T05:23:03.587Z,69.50
2023-03-11T05:25:32.823Z,69.60
2023-03-11T05:27:59.664Z,69.50
2023-03-11T05:30:27.140Z,69.60
2023-03-11T05:32:56.348Z,69.60
2023-03-11T05:35:23.472Z,69.60
2023-03-11T05:37:50.950Z,69.70
2023-03-11T05:40:19.087Z,69.70
2023-03-11T05:42:47.205Z,69.60
2023-03-11T05:45:15.633Z,69.70
2023-03-11T05:47:45.046Z,69.70
2023-03-11T05:50:14.419Z,69.70
2023-03-11T05:52:42.706Z,69.80
2023-03-11T05:55:12.174Z,69.70
2023-03-11T05:57:40.941Z,69.80
2023-03-11T06:00:12.408Z,69.80
2023-03-11T06:02:46.741Z,69.80
2023-03-11T06:05:17.364Z,69.80
2023-03-11T06:07:46.365Z,69.80
2023-03-11T06:10:13.666Z,69.90
2023-03-11T06:12:41.267Z,69.80
2023-03-11T06:15:16.597Z,69.80
2023-03-11T06:17:43.453Z,69.90
2023-03-11T06:20:11.021Z,69.90
2023-03-11T06:22:40.197Z,70.00
2023-03-11T06:25:08.277Z,70.00
2023-03-11T06:27:36.583Z,70.00
2023-03-11T06:30:04.623Z,70.00
2023-03-11T06:32:37.318Z,70.00
2023-03-11T06:35:05.816Z,70.00
2023-03-11T06:37:37.005Z,70.00
2023-03-11T06:40:07.120Z,70.00
2023-03-11T06:42:35.468Z,70.00
2023-03-11T06:45:03.422Z,70.10
2023-03-11T06:47:30.840Z,70.10
2023-03-11T06:49:58.043Z,70.20
2023-03-11T06:52:26.558Z,70.20
2023-03-11T06:54:55.211Z,70.20
2023-03-11T06:57:22.192Z,70.30
2023-03-11T06:59:50.719Z,70.40
2023-03-11T07:02:18.509Z,70.40
2023-03-11T07:04:48.733Z,70.60
2023-03-11T07:07:15.684Z,70.60
2023-03-11T07:09:42.696Z,70.60
2023-03-11T07:12:14.800Z,70.70
2023-03-11T07:14:41.822Z,70.70
2023-03-11T07:17:08.886Z,70.70
2023-03-11T07:19:42.055Z,70.80
2023-03-11T07:22:08.849Z,70.90
2023-03-11T07:24:35.807Z,71.00
2023-03-11T07:27:02.740Z,71.10
2023-03-11T07:29:29.571Z,71.20
2023-03-11T07:31:56.406Z,71.20
2023-03-11T07:34:25.959Z,71.30
2023-03-11T07:36:52.737Z,71.30
2023-03-11T07:39:20.083Z,71.40
2023-03-11T07:41:47.058Z,71.30
2023-03-11T07:44:15.745Z,71.30
2023-03-11T07:46:43.126Z,71.30
2023-03-11T07:49:10.378Z,71.20
2023-03-11T07:51:38.944Z,71.20
2023-03-11T07:54:05.842Z,71.30
2023-03-11T07:56:34.600Z,71.20
2023-03-11T07:59:02.920Z,71.20
2023-03-11T08:01:36.277Z,71.00
2023-03-11T08:04:05.645Z,70.90
2023-03-11T08:06:34.093Z,70.90
2023-03-11T08:09:04.085Z,70.70
2023-03-11T08:11:32.212Z,70.70
2023-03-11T08:13:59.574Z,70.70
2023-03-11T08:16:27.270Z,70.60
2023-03-11T08:18:54.625Z,70.50
2023-03-11T08:21:24.778Z,70.40
2023-03-11T08:23:52.816Z,70.20
2023-03-11T08:26:21.895Z,70.00
2023-03-11T08:28:49.680Z,70.00
2023-03-11T08:31:25.651Z,69.90
2023-03-11T08:33:56.306Z,69.30
2023-03-11T08:36:23.510Z,69.20
2023-03-11T08:38:50.397Z,69.10
2023-03-11T08:41:17.189Z,68.70
2023-03-11T08:43:44.506Z,68.00
2023-03-11T08:46:21.581Z,68.10
2023-03-11T08:48:48.436Z,67.50
2023-03-11T08:51:16.309Z,67.40
2023-03-11T08:53:43.189Z,67.20
2023-03-11T08:56:10.144Z,66.90
2023-03-11T08:58:37.144Z,66.50
2023-03-11T09:01:05.094Z,66.00
2023-03-11T09:03:35.275Z,66.10
2023-03-11T09:06:04.851Z,65.30
2023-03-11T09:08:31.969Z,64.90
2023-03-11T09:10:58.799Z,64.70
2023-03-11T09:13:26.343Z,64.50
2023-03-11T09:15:53.849Z,64.20
2023-03-11T09:18:21.078Z,64.10
2023-03-11T09:20:47.969Z,63.40
2023-03-11T09:23:17.114Z,62.70
2023-03-11T09:25:44.140Z,62.30
2023-03-11T09:28:10.867Z,62.30
2023-03-11T09:30:37.608Z,61.80
2023-03-11T09:33:04.446Z,61.60
2023-03-11T09:35:31.423Z,61.60
2023-03-11T09:37:58.387Z,61.00
2023-03-11T09:40:32.900Z,60.90
2023-03-11T09:42:59.630Z,60.60
2023-03-11T09:45:33.855Z,60.50
2023-03-11T09:48:22.788Z,60.00
2023-03-11T09:51:09.041Z,59.30
2023-03-11T09:53:42.504Z,59.60
2023-03-11T09:56:17.336Z,59.60
2023-03-11T09:58:51.496Z,58.50
2023-03-11T10:01:24.797Z,58.60
2023-03-11T10:03:54.497Z,58.10
2023-03-11T10:06:28.803Z,57.70
2023-03-11T10:09:40.966Z,57.80
2023-03-11T10:12:32.827Z,57.80
2023-03-11T10:15:09.418Z,57.70
2023-03-11T10:17:49.549Z,57.50
2023-03-11T10:20:34.533Z,57.70
2023-03-11T10:23:26.403Z,58.10
2023-03-11T10:26:18.039Z,57.70
2023-03-11T10:28:51.532Z,58.00
2023-03-11T10:31:25.246Z,57.40
2023-03-11T10:34:03.093Z,56.90
2023-03-11T10:36:43.126Z,56.90
2023-03-11T10:39:11.635Z,56.60
2023-03-11T10:41:55.103Z,56.30
2023-03-11T10:44:39.770Z,56.60
2023-03-11T10:47:12.667Z,56.40
2023-03-11T10:49:39.439Z,56.20
2023-03-11T10:52:06.559Z,55.70
2023-03-11T10:54:39.620Z,55.70
2023-03-11T10:57:21.788Z,55.90
2023-03-11T10:59:51.823Z,55.80
2023-03-11T11:02:23.337Z,55.80
2023-03-11T11:05:03.437Z,55.70
2023-03-11T11:07:33.388Z,56.00
2023-03-11T11:10:12.340Z,55.60
2023-03-11T11:13:02.591Z,54.90
2023-03-11T11:15:37.954Z,54.50
2023-03-11T11:18:15.405Z,54.70
2023-03-11T11:20:55.874Z,54.00
2023-03-11T11:23:30.842Z,53.50
2023-03-11T11:26:01.440Z,53.40
2023-03-11T11:28:28.926Z,53.20
2023-03-11T11:31:04.018Z,52.70
2023-03-11T11:33:38.734Z,52.40
2023-03-11T11:36:12.056Z,52.10
2023-03-11T11:38:39.593Z,51.80
2023-03-11T11:41:09.715Z,50.90
2023-03-11T11:43:49.859Z,50.30
2023-03-11T11:46:22.295Z,50.90
2023-03-11T11:49:19.094Z,49.90
2023-03-11T11:52:11.662Z,50.00
2023-03-11T11:54:46.365Z,50.50
2023-03-11T11:57:24.352Z,50.50
2023-03-11T11:59:51.592Z,50.20
2023-03-11T12:02:52.395Z,50.30
2023-03-11T12:05:41.907Z,49.10
2023-03-11T12:08:20.408Z,48.90
2023-03-11T12:10:53.973Z,48.10
2023-03-11T12:13:35.788Z,48.30
2023-03-11T12:16:11.865Z,47.70
2023-03-11T12:18:49.619Z,48.00
2023-03-11T12:21:54.059Z,47.50
2023-03-11T12:24:39.684Z,46.50
2023-03-11T12:27:34.031Z,46.10
2023-03-11T12:30:16.025Z,46.00
2023-03-11T12:33:14.030Z,46.50
2023-03-11T12:35:49.898Z,46.00
2023-03-11T12:38:29.511Z,45.60
2023-03-11T12:41:14.680Z,45.50
2023-03-11T12:43:41.644Z,45.50
2023-03-11T12:46:14.248Z,44.90
2023-03-11T12:49:11.841Z,44.50
2023-03-11T12:51:40.881Z,44.90
2023-03-11T12:54:33.302Z,44.40
2023-03-11T12:57:15.772Z,44.30
2023-03-11T13:00:00.633Z,44.40
2023-03-11T13:02:38.404Z,44.70
2023-03-11T13:05:10.796Z,44.20
2023-03-11T13:07:58.551Z,44.00
2023-03-11T13:10:44.584Z,44.50
2023-03-11T13:13:31.237Z,43.60
2023-03-11T13:16:19.238Z,43.80
2023-03-11T13:18:48.660Z,44.30
2023-03-11T13:21:27.771Z,43.40
2023-03-11T13:24:19.692Z,43.40
2023-03-11T13:27:07.787Z,43.00
2023-03-11T13:30:01.782Z,42.90
2023-03-11T13:32:42.521Z,42.50
2023-03-11T13:35:25.022Z,41.20
2023-03-11T13:38:21.235Z,41.40
2023-03-11T13:40:49.794Z,41.40
2023-03-11T13:43:27.473Z,41.40
2023-03-11T13:46:04.969Z,40.50
2023-03-11T13:48:48.314Z,40.30
2023-03-11T13:51:37.904Z,40.90
2023-03-11T13:54:20.179Z,40.70
2023-03-11T13:57:12.383Z,39.80
2023-03-11T13:59:39.203Z,40.20
2023-03-11T14:02:09.162Z,40.50
2023-03-11T14:04:37.559Z,39.70
2023-03-11T14:07:19.750Z,40.20
2023-03-11T14:09:46.572Z,40.30
2023-03-11T14:12:13.855Z,39.90
2023-03-11T14:14:49.528Z,40.30
2023-03-11T14:17:18.867Z,40.00
2023-03-11T14:20:07.610Z,39.20
2023-03-11T14:22:34.710Z,39.00
2023-03-11T14:25:10.998Z,38.10
2023-03-11T14:27:39.251Z,38.60
2023-03-11T14:30:06.995Z,38.10
2023-03-11T14:32:35.057Z,38.20
2023-03-11T14:35:01.965Z,37.90
2023-03-11T14:37:37.555Z,38.00
2023-03-11T14:40:22.856Z,38.50
2023-03-11T14:42:53.798Z,39.00
2023-03-11T14:45:23.931Z,38.90
2023-03-11T14:48:18.032Z,38.90
2023-03-11T14:50:49.361Z,39.20
2023-03-11T14:53:25.306Z,39.30
2023-03-11T14:55:58.345Z,39.30
2023-03-11T14:58:55.756Z,39.50
2023-03-11T15:01:32.285Z,39.10
2023-03-11T15:04:04.489Z,39.50
2023-03-11T15:06:33.272Z,39.20
2023-03-11T15:09:06.668Z,39.30
2023-03-11T15:11:49.095Z,39.60
2023-03-11T15:14:32.907Z,39.80
2023-03-11T15:17:37.813Z,39.50
2023-03-11T15:20:24.946Z,38.30
2023-03-11T15:23:20.811Z,37.50
2023-03-11T15:25:50.078Z,37.50
2023-03-11T15:28:25.217Z,37.80
2023-03-11T15:31:15.326Z,38.20
2023-03-11T15:33:42.395Z,38.20
2023-03-11T15:36:32.720Z,37.80
2023-03-11T15:39:13.764Z,38.00
2023-03-11T15:41:57.401Z,38.30
2023-03-11T15:44:30.464Z,38.70
2023-03-11T15:46:59.853Z,38.50
2023-03-11T15:49:28.310Z,37.60
2023-03-11T15:52:02.320Z,37.60
2023-03-11T15:54:29.360Z,37.00
2023-03-11T15:56:58.457Z,37.30
2023-03-11T15:59:26.019Z,37.10
2023-03-11T16:01:52.858Z,37.20
2023-03-11T16:04:20.409Z,37.30
2023-03-11T16:06:59.349Z,37.50
2023-03-11T16:09:34.248Z,37.10
2023-03-11T16:12:02.338Z,37.60
2023-03-11T16:14:29.157Z,36.70
2023-03-11T16:16:55.956Z,36.50
2023-03-11T16:19:22.814Z,36.80
2023-03-11T16:21:50.629Z,36.60
2023-03-11T16:24:23.923Z,36.90
2023-03-11T16:26:52.264Z,37.40
2023-03-11T16:29:20.069Z,37.20
2023-03-11T16:31:47.380Z,37.50
2023-03-11T16:34:14.328Z,37.10
2023-03-11T16:36:41.328Z,36.40
2023-03-11T16:39:08.151Z,36.40
2023-03-11T16:41:42.740Z,36.20
2023-03-11T16:44:10.303Z,36.10
2023-03-11T16:46:37.525Z,36.20
2023-03-11T16:49:05.300Z,36.60
2023-03-11T16:51:32.493Z,36.70
2023-03-11T16:53:59.654Z,36.40
2023-03-11T16:56:26.857Z,36.60
2023-03-11T16:58:53.740Z,36.60
2023-03-11T17:01:21.787Z,36.70
2023-03-11T17:03:50.875Z,36.70
2023-03-11T17:06:19.160Z,36.80
2023-03-11T17:08:49.051Z,37.10
2023-03-11T17:11:21.071Z,37.10
2023-03-11T17:13:48.112Z,37.40
2023-03-11T17:16:15.018Z,37.60
2023-03-11T17:18:42.273Z,38.00
2023-03-11T17:21:13.056Z,38.20
2023-03-11T17:23:40.253Z,38.50
2023-03-11T17:26:12.264Z,38.70
2023-03-11T17:28:41.941Z,38.70
2023-03-11T17:31:14.097Z,38.90
2023-03-11T17:33:41.484Z,39.00
2023-03-11T17:36:11.013Z,39.20
2023-03-11T17:38:38.836Z,39.20
2023-03-11T17:41:13.875Z,39.40
2023-03-11T17:43:41.253Z,39.50
2023-03-11T17:46:14.308Z,39.70
2023-03-11T17:48:42.477Z,40.00
2023-03-11T17:51:11.559Z,40.50
2023-03-11T17:53:45.279Z,41.10
2023-03-11T17:56:14.796Z,41.50
2023-03-11T17:58:41.717Z,41.90
2023-03-11T18:01:13.007Z,42.10
2023-03-11T18:03:39.999Z,42.50
2023-03-11T18:06:08.545Z,42.90
2023-03-11T18:08:36.368Z,43.00
2023-03-11T18:11:06.176Z,42.90
2023-03-11T18:13:34.269Z,42.80
2023-03-11T18:16:09.506Z,43.00
2023-03-11T18:18:37.107Z,43.00
2023-03-11T18:21:06.473Z,42.90
2023-03-11T18:23:34.045Z,43.20
2023-03-11T18:26:03.225Z,43.20
2023-03-11T18:28:30.355Z,43.20
2023-03-11T18:31:09.186Z,43.30
2023-03-11T18:33:36.738Z,43.70
2023-03-11T18:36:13.821Z,44.20
2023-03-11T18:38:40.753Z,44.80
2023-03-11T18:41:07.699Z,45.10
2023-03-11T18:43:34.591Z,45.40
2023-03-11T18:46:01.976Z,45.60
2023-03-11T18:48:28.908Z,45.80
2023-03-11T18:50:56.842Z,46.00
2023-03-11T18:53:26.817Z,46.20
2023-03-11T18:55:59.763Z,46.20
2023-03-11T18:58:26.745Z,46.50
2023-03-11T19:00:53.856Z,46.60
2023-03-11T19:03:20.833Z,46.60
2023-03-11T19:05:50.724Z,46.90
2023-03-11T19:08:20.034Z,47.30
2023-03-11T19:10:47.373Z,47.80
2023-03-11T19:13:14.653Z,48.00
2023-03-11T19:15:42.042Z,48.10
2023-03-11T19:18:09.128Z,48.30
2023-03-11T19:20:36.264Z,48.40
2023-03-11T19:23:03.211Z,48.50
2023-03-11T19:25:30.159Z,48.60
2023-03-11T19:27:57.374Z,48.50
2023-03-11T19:30:24.178Z,48.40
2023-03-11T19:32:52.692Z,48.50
2023-03-11T19:35:23.907Z,48.60
2023-03-11T19:37:57.100Z,48.60
2023-03-11T19:40:24.273Z,48.80
2023-03-11T19:42:51.647Z,48.70
2023-03-11T19:45:18.509Z,48.80
2023-03-11T19:47:50.004Z,48.80
2023-03-11T19:50:17.748Z,48.90
2023-03-11T19:52:44.653Z,49.10
2023-03-11T19:55:11.676Z,49.20
2023-03-11T19:57:38.551Z,49.40
2023-03-11T20:00:06.068Z,49.70
2023-03-11T20:02:33.282Z,49.80
2023-03-11T20:05:00.408Z,50.00
2023-03-11T20:07:27.385Z,50.00
2023-03-11T20:09:54.425Z,50.30
2023-03-11T20:12:21.150Z,50.50
2023-03-11T20:14:47.993Z,50.70
2023-03-11T20:17:14.964Z,50.70
2023-03-11T20:19:41.853Z,50.80
2023-03-11T20:22:08.592Z,51.00
2023-03-11T20:24:35.328Z,51.20
2023-03-11T20:27:02.515Z,51.30
2023-03-11T20:29:29.304Z,51.50
2023-03-11T20:31:56.130Z,51.60
2023-03-11T20:34:23.047Z,51.90
2023-03-11T20:36:50.933Z,52.10
2023-03-11T20:39:18.062Z,52.10
2023-03-11T20:41:44.895Z,52.30
2023-03-11T20:44:13.744Z,52.50
2023-03-11T20:46:41.792Z,52.70
2023-03-11T20:49:08.778Z,52.80
2023-03-11T20:51:35.686Z,52.90
2023-03-11T20:54:02.826Z,52.80
2023-03-11T20:56:29.928Z,52.60
2023-03-11T20:58:59.294Z,52.40
2023-03-11T21:01:30.994Z,52.40
2023-03-11T21:04:00.013Z,52.30
2023-03-11T21:06:29.629Z,52.40
2023-03-11T21:08:58.932Z,52.40
2023-03-11T21:11:26.548Z,52.40
2023-03-11T21:13:54.827Z,52.50
2023-03-11T21:16:22.176Z,52.50
2023-03-11T21:18:49.760Z,52.60
2023-03-11T21:21:17.834Z,52.60
2023-03-11T21:23:45.764Z,52.70
2023-03-11T21:26:15.111Z,52.60
2023-03-11T21:28:46.184Z,52.60
2023-03-11T21:31:17.043Z,52.60
2023-03-11T21:33:44.590Z,52.60
2023-03-11T21:36:13.363Z,52.50
2023-03-11T21:38:40.715Z,52.50
2023-03-11T21:41:20.143Z,52.40
2023-03-11T21:43:47.920Z,52.30
2023-03-11T21:46:17.932Z,52.30
2023-03-11T21:48:46.240Z,52.30
2023-03-11T21:51:14.722Z,52.40
2023-03-11T21:53:41.933Z,52.70
2023-03-11T21:56:09.966Z,52.60
2023-03-11T21:58:37.106Z,52.70
2023-03-11T22:01:04.300Z,52.70
2023-03-11T22:03:35.287Z,52.70
2023-03-11T22:06:04.790Z,52.70
2023-03-11T22:08:32.312Z,52.70
2023-03-11T22:10:59.201Z,52.60
2023-03-11T22:13:27.165Z,52.60
2023-03-11T22:15:54.223Z,52.40
2023-03-11T22:18:21.168Z,52.20
2023-03-11T22:20:48.002Z,52.10
2023-03-11T22:23:14.793Z,52.00
2023-03-11T22:25:41.647Z,51.70
2023-03-11T22:28:12.079Z,51.70
2023-03-11T22:30:39.327Z,51.70
2023-03-11T22:33:06.627Z,51.40
2023-03-11T22:35:33.637Z,51.20
2023-03-11T22:38:00.457Z,51.20
2023-03-11T22:40:27.456Z,51.20
2023-03-11T22:42:54.355Z,51.10
2023-03-11T22:45:22.274Z,51.20
2023-03-11T22:47:50.657Z,51.30
2023-03-11T22:50:18.265Z,51.30
2023-03-11T22:52:45.522Z,51.20
2023-03-11T22:55:12.536Z,51.20
2023-03-11T22:57:39.272Z,51.20
2023-03-11T23:00:17.218Z,51.00
2023-03-11T23:02:48.628Z,51.20
2023-03-11T23:05:16.107Z,51.30
2023-03-11T23:07:43.182Z,51.50
2023-03-11T23:10:14.617Z,51.50
2023-03-11T23:12:41.716Z,51.50
2023-03-11T23:15:13.581Z,51.60
2023-03-11T23:17:44.707Z,51.60
2023-03-11T23:20:24.273Z,51.70
2023-03-11T23:22:51.620Z,51.80
2023-03-11T23:25:22.232Z,51.80
2023-03-11T23:27:49.006Z,51.70
2023-03-11T23:30:17.716Z,51.70
2023-03-11T23:32:45.504Z,51.70
2023-03-11T23:35:13.037Z,51.70
2023-03-11T23:37:40.485Z,51.60
2023-03-11T23:40:09.211Z,51.70
2023-03-11T23:42:36.012Z,51.70
2023-03-11T23:45:03.765Z,51.80
2023-03-11T23:47:30.647Z,51.80
2023-03-11T23:49:57.550Z,51.80
2023-03-11T23:52:24.784Z,51.90
2023-03-11T23:54:51.669Z,51.90
2023-03-11T23:57:18.875Z,52.00
2023-03-11T23:59:45.753Z,52.10
